Time;durP1;ratioP1;P1;durP2;ratioP2;P2;SDS_P1;SDS_P2;PMS_P1;PMS_P2;Temp;Humidity;BMP_temperature;BMP_pressure;BME280_temperature;BME280_humidity;BME280_pressure;Samples;Min_cycle;Max_cycle;Signal;HPM_P1;HPM_P2
2022/05/21 00:00:13;;;;;;;4.75;1.70;;;;;;;19.15;73.13;101312.41;4881957;29;20075;-73
2022/05/21 00:02:58;;;;;;;6.55;2.05;;;;;;;19.09;73.62;101308.22;4881001;29;20037;-72
2022/05/21 00:05:45;;;;;;;2.40;1.70;;;;;;;18.91;74.68;101305.47;4882085;29;20029;-72
2022/05/21 00:08:31;;;;;;;2.28;1.77;;;;;;;19.09;74.31;101302.91;4881669;29;20115;-72
2022/05/21 00:11:17;;;;;;;2.00;1.42;;;;;;;18.93;76.27;101304.47;4868412;29;20124;-72
2022/05/21 00:14:03;;;;;;;2.80;1.60;;;;;;;19.21;73.99;101297.06;4881942;29;20033;-73
2022/05/21 00:16:49;;;;;;;2.47;1.80;;;;;;;19.29;74.18;101299.41;4868763;29;20119;-72
2022/05/21 00:19:34;;;;;;;3.80;1.60;;;;;;;19.29;73.50;101299.41;4881278;29;20479;-72
2022/05/21 00:22:21;;;;;;;4.50;1.60;;;;;;;19.27;73.60;101301.28;4882069;29;20076;-72
2022/05/21 00:25:07;;;;;;;2.22;1.73;;;;;;;19.39;72.63;101302.53;4868269;29;20044;-72
2022/05/21 00:27:53;;;;;;;4.93;1.50;;;;;;;19.14;75.07;101298.25;4868053;29;20061;-73
2022/05/21 00:30:39;;;;;;;2.95;1.70;;;;;;;19.23;74.18;101294.34;4882308;29;20121;-72
2022/05/21 00:33:27;;;;;;;4.25;1.70;;;;;;;19.07;75.33;101293.28;4880540;29;20546;-72
2022/05/21 00:36:13;;;;;;;2.78;1.70;;;;;;;18.88;76.65;101287.88;4881671;29;20450;-71
2022/05/21 00:38:59;;;;;;;4.32;1.60;;;;;;;18.86;77.54;101295.03;4868555;29;20029;-73
2022/05/21 00:41:45;;;;;;;2.05;1.45;;;;;;;18.84;78.58;101285.41;4880323;29;20037;-72
2022/05/21 00:44:31;;;;;;;4.38;1.60;;;;;;;18.54;81.67;101298.19;4881458;29;20435;-72
2022/05/21 00:47:17;;;;;;;2.33;1.48;;;;;;;18.77;80.70;101290.13;4881604;29;20025;-71
2022/05/21 00:50:06;;;;;;;2.50;1.50;;;;;;;18.92;79.92;101285.94;4881547;29;20048;-73
2022/05/21 00:52:53;;;;;;;3.13;1.83;;;;;;;18.80;80.37;101281.16;4881159;29;20025;-73
2022/05/21 00:55:39;;;;;;;4.93;1.70;;;;;;;18.91;80.20;101271.84;4881312;29;20029;-72
2022/05/21 01:01:37;;;;;;;7.32;2.10;;;;;;;18.48;83.31;101277.19;4881604;29;20037;-73
2022/05/21 01:04:25;;;;;;;3.08;2.10;;;;;;;18.18;87.12;101269.59;4881212;29;20131;-73
2022/05/21 01:07:12;;;;;;;4.13;2.10;;;;;;;18.10;88.93;101267.25;4881581;29;20041;-73
2022/05/21 01:10:00;;;;;;;2.72;1.73;;;;;;;18.28;87.67;101268.28;4880550;29;20097;-72
2022/05/21 01:12:52;;;;;;;2.30;1.98;;;;;;;18.16;88.39;101260.81;4880699;29;20072;-72
2022/05/21 01:15:42;;;;;;;3.33;1.92;;;;;;;17.88;92.11;101252.25;4868027;29;20125;-72
2022/05/21 01:18:28;;;;;;;4.40;2.13;;;;;;;17.94;91.91;101254.63;4868068;29;20049;-72
2022/05/21 01:21:13;;;;;;;5.40;1.88;;;;;;;17.85;93.83;101257.66;4879897;29;20462;-73
2022/05/21 01:23:59;;;;;;;3.72;1.83;;;;;;;17.93;94.29;101256.41;4881145;29;20366;-71
2022/05/21 01:26:45;;;;;;;2.97;1.88;;;;;;;17.96;93.18;101255.41;4867538;29;20130;-72
2022/05/21 01:29:31;;;;;;;5.13;1.98;;;;;;;17.93;93.77;101263.53;4880741;29;20468;-72
2022/05/21 01:32:18;;;;;;;4.88;2.45;;;;;;;18.35;90.82;101253.88;4868388;29;20067;-72
2022/05/21 01:35:06;;;;;;;2.70;1.90;;;;;;;18.18;91.55;101259.84;4868899;29;20536;-71
2022/05/21 01:37:53;;;;;;;3.88;1.80;;;;;;;17.93;93.63;101256.41;4885293;29;20055;-72
2022/05/21 01:40:39;;;;;;;5.65;1.83;;;;;;;17.63;96.07;101251.41;4881031;29;20036;-73
2022/05/21 01:46:31;;;;;;;1.90;1.63;;;;;;;17.46;98.70;101243.25;4880890;29;20017;-72
2022/05/21 01:49:17;;;;;;;5.55;1.70;;;;;;;17.64;98.11;101245.22;4880800;29;20060;-72
2022/05/21 01:52:04;;;;;;;3.03;1.65;;;;;;;17.66;97.22;101238.06;4881725;29;20036;-71
2022/05/21 01:54:50;;;;;;;4.72;1.85;;;;;;;17.52;97.82;101238.59;4884022;29;20472;-72
2022/05/21 01:57:35;;;;;;;2.63;1.90;;;;;;;17.54;99.26;101235.88;4883776;29;20091;-72
2022/05/21 02:00:22;;;;;;;2.75;1.63;;;;;;;17.80;96.69;101233.13;4884740;29;20032;-72
2022/05/21 02:03:09;;;;;;;2.33;1.70;;;;;;;17.89;97.01;101232.75;4884456;29;20029;-71
2022/05/21 02:05:55;;;;;;;4.25;1.95;;;;;;;17.71;97.61;101230.78;4884422;29;20043;-72
2022/05/21 02:08:40;;;;;;;2.72;2.00;;;;;;;17.70;96.70;101224.66;4883912;29;20406;-71
2022/05/21 02:11:26;;;;;;;4.05;1.77;;;;;;;17.61;97.10;101224.13;4884069;29;20037;-72
2022/05/21 02:14:12;;;;;;;4.38;2.03;;;;;;;17.72;97.23;101224.59;4884230;29;20044;-72
2022/05/21 02:16:58;;;;;;;3.15;1.70;;;;;;;18.07;95.03;101221.41;4884178;29;20033;-72
2022/05/21 02:19:44;;;;;;;1.90;1.60;;;;;;;17.94;94.79;101210.44;4884399;29;20483;-71
2022/05/21 02:22:30;;;;;;;3.30;1.83;;;;;;;17.84;95.51;101206.41;4885615;29;20348;-71
2022/05/21 02:25:16;;;;;;;4.50;1.70;;;;;;;17.83;96.81;101202.03;4883722;29;20025;-72
2022/05/21 02:28:02;;;;;;;6.45;2.00;;;;;;;17.81;96.78;101205.69;4883395;29;20065;-71
2022/05/21 02:30:48;;;;;;;2.83;2.05;;;;;;;18.02;94.05;101202.16;4870672;29;20040;-72
2022/05/21 02:33:34;;;;;;;3.38;1.60;;;;;;;18.13;93.66;101208.75;4883105;29;20025;-71
2022/05/21 02:39:25;;;;;;;3.55;1.90;;;;;;;17.96;94.18;101213.00;4870328;29;20040;-71
2022/05/21 02:39:25;;;;;;;3.75;1.90;;;;;;;18.20;93.11;101214.66;4882689;29;20043;-72
2022/05/21 02:45:21;;;;;;;4.03;2.10;;;;;;;17.99;95.16;101220.84;4883743;29;20371;-72
2022/05/21 02:48:07;;;;;;;6.45;2.00;;;;;;;18.20;93.08;101219.97;4883230;29;20043;-72
2022/05/21 02:50:54;;;;;;;4.53;1.65;;;;;;;18.17;94.16;101214.81;4883299;29;20053;-73
2022/05/21 02:53:39;;;;;;;4.50;1.98;;;;;;;18.13;92.24;101215.88;4884330;29;20037;-71
2022/05/21 02:56:25;;;;;;;4.93;1.92;;;;;;;18.16;92.97;101219.25;4885482;29;20053;-72
2022/05/21 02:59:11;;;;;;;3.70;2.05;;;;;;;18.04;94.13;101218.84;4883753;29;20029;-72
2022/05/21 03:01:57;;;;;;;4.10;1.90;;;;;;;17.94;93.29;101218.38;4883279;29;20043;-72
2022/05/21 03:04:43;;;;;;;4.68;1.92;;;;;;;18.24;93.04;101214.50;4881521;29;20124;-72
2022/05/21 03:07:43;;;;;;;3.63;2.00;;;;;;;18.40;91.70;101214.75;4883846;29;20403;-72
2022/05/21 03:10:30;;;;;;;4.07;1.92;;;;;;;18.27;92.28;101218.81;4870139;29;20522;-71
2022/05/21 03:13:16;;;;;;;3.83;2.20;;;;;;;18.28;92.49;101209.91;4883552;29;20096;-72
2022/05/21 03:16:02;;;;;;;4.32;1.95;;;;;;;18.03;93.83;101218.03;4882966;29;20097;-72
2022/05/21 03:18:47;;;;;;;3.95;2.17;;;;;;;18.08;95.03;101220.47;4883315;29;20064;-71
2022/05/21 03:21:33;;;;;;;3.15;2.10;;;;;;;18.13;94.65;101223.81;4882991;29;20446;-72
2022/05/21 03:24:19;;;;;;;2.20;1.90;;;;;;;18.14;94.00;101214.94;4869920;29;20037;-71
2022/05/21 03:27:07;;;;;;;5.40;1.95;;;;;;;18.28;94.00;101215.22;4882638;29;20084;-71
2022/05/21 03:29:53;;;;;;;4.55;2.65;;;;;;;18.18;94.86;101213.88;4869840;29;20093;-72
2022/05/21 03:32:38;;;;;;;3.22;2.00;;;;;;;18.28;93.40;101221.41;4882985;29;20418;-71
2022/05/21 03:35:25;;;;;;;4.13;2.60;;;;;;;18.38;92.79;101222.78;4881862;29;20451;-71
2022/05/21 03:38:11;;;;;;;3.78;1.98;;;;;;;18.33;92.28;101231.84;4881584;29;20370;-72
2022/05/21 03:40:56;;;;;;;5.53;2.08;;;;;;;18.39;91.76;101229.81;4870109;29;20038;-72
2022/05/21 03:43:44;;;;;;;3.03;2.33;;;;;;;18.19;93.97;101227.09;4869209;29;20032;-73
2022/05/21 03:46:30;;;;;;;7.65;1.92;;;;;;;18.28;94.08;101215.22;4868870;29;20115;-71
2022/05/21 03:49:16;;;;;;;3.40;2.00;;;;;;;18.31;93.90;101220.41;4882706;29;20106;-72
2022/05/21 03:52:02;;;;;;;4.03;2.50;;;;;;;18.35;93.26;101216.72;4881809;29;20025;-72
2022/05/21 03:54:47;;;;;;;5.10;2.17;;;;;;;18.18;92.77;101214.75;4882818;29;20036;-72
2022/05/21 03:57:33;;;;;;;5.50;2.13;;;;;;;18.43;90.42;101211.97;4882195;29;20096;-71
2022/05/21 04:00:20;;;;;;;5.70;2.08;;;;;;;18.34;91.70;101215.91;4882562;29;20033;-72
2022/05/21 04:03:06;;;;;;;6.25;1.90;;;;;;;18.31;93.28;101226.59;4881068;29;20469;-72
2022/05/21 04:05:56;;;;;;;3.35;2.08;;;;;;;18.33;93.00;101223.88;4882740;29;20037;-72
2022/05/21 04:08:42;;;;;;;4.63;2.10;;;;;;;18.17;93.85;101223.63;4868718;29;20109;-72
2022/05/21 04:11:27;;;;;;;2.90;1.88;;;;;;;18.49;92.78;101219.69;4881913;29;20370;-72
2022/05/21 04:14:14;;;;;;;3.58;1.90;;;;;;;18.30;94.87;101216.91;4882223;29;20447;-72
2022/05/21 04:17:01;;;;;;;3.17;2.45;;;;;;;18.59;93.92;101223.66;4882065;29;20029;-72
2022/05/21 04:19:47;;;;;;;3.70;1.92;;;;;;;18.36;94.08;101226.41;4881277;29;20068;-71
2022/05/21 04:22:33;;;;;;;2.60;2.00;;;;;;;18.64;93.91;101234.94;4881273;29;20036;-72
2022/05/21 04:25:20;;;;;;;3.90;2.00;;;;;;;18.82;92.15;101232.38;4882167;29;20029;-72
2022/05/21 04:28:06;;;;;;;4.05;2.33;;;;;;;18.78;93.81;101240.56;4868059;29;20036;-72
2022/05/21 04:30:52;;;;;;;2.42;1.77;;;;;;;18.79;93.87;101242.28;4881749;29;20047;-72
2022/05/21 04:33:38;;;;;;;4.07;2.10;;;;;;;18.48;96.91;101250.66;4881475;29;20033;-71
2022/05/21 04:36:23;;;;;;;3.10;2.15;;;;;;;18.59;97.60;101248.44;4868017;29;20040;-71
2022/05/21 04:39:09;;;;;;;3.35;2.40;;;;;;;18.66;97.90;101249.03;4880953;29;20037;-72
2022/05/21 04:41:55;;;;;;;6.97;2.40;;;;;;;18.58;97.72;101243.19;4868122;29;20029;-72
2022/05/21 04:44:41;;;;;;;3.95;2.20;;;;;;;18.82;97.89;101250.97;4880777;29;20454;-72
2022/05/21 04:47:27;;;;;;;5.15;2.78;;;;;;;18.67;99.33;101248.09;4881967;29;20033;-72
2022/05/21 04:50:14;;;;;;;7.28;2.50;;;;;;;18.77;98.09;101244.16;4881822;29;20120;-72
2022/05/21 04:52:59;;;;;;;4.30;2.20;;;;;;;18.79;99.03;101239.63;4881891;29;20036;-72
2022/05/21 04:55:45;;;;;;;4.43;2.08;;;;;;;18.82;98.62;101234.19;4881101;29;20477;-72
2022/05/21 04:58:32;;;;;;;5.47;2.10;;;;;;;18.68;100.00;101236.56;4880690;29;20336;-71
2022/05/21 05:01:18;;;;;;;6.05;1.98;;;;;;;18.99;98.70;101240.50;4880960;29;20359;-72
2022/05/21 05:04:04;;;;;;;4.18;2.00;;;;;;;19.35;97.84;101247.78;4881263;29;20029;-72
2022/05/21 05:06:50;;;;;;;10.05;2.20;;;;;;;18.73;100.00;101245.22;4880763;29;20339;-72
2022/05/21 05:09:44;;;;;;;10.38;2.25;;;;;;;18.76;100.00;101251.25;4881150;29;20032;-71
2022/05/21 05:12:31;;;;;;;4.57;2.40;;;;;;;18.51;100.00;101250.53;4881070;29;20040;-72
2022/05/21 05:15:17;;;;;;;8.00;2.22;;;;;;;18.74;100.00;101242.47;4880405;29;20037;-73
2022/05/21 05:18:08;;;;;;;7.40;2.30;;;;;;;18.57;100.00;101244.13;4880477;29;20044;-73
2022/05/21 05:20:54;;;;;;;7.22;2.50;;;;;;;19.06;100.00;101241.09;4880528;29;20378;-73
2022/05/21 05:23:40;;;;;;;5.35;1.98;;;;;;;19.22;100.00;101239.47;4881159;29;20360;-72
2022/05/21 05:26:26;;;;;;;3.85;2.25;;;;;;;19.21;100.00;101238.59;4880586;29;20496;-71
2022/05/21 05:29:12;;;;;;;4.60;2.30;;;;;;;19.14;100.00;101237.16;4881142;29;20463;-72
2022/05/21 05:31:57;;;;;;;8.55;2.40;;;;;;;19.34;100.00;101238.09;4881148;29;20112;-73
2022/05/21 05:34:43;;;;;;;6.55;2.10;;;;;;;19.22;100.00;101235.00;4867152;29;20431;-73
2022/05/21 05:37:29;;;;;;;4.65;2.15;;;;;;;19.59;100.00;101228.94;4881409;29;20082;-71
2022/05/21 05:40:18;;;;;;;7.38;2.10;;;;;;;19.52;100.00;101230.13;4879563;29;20057;-72
2022/05/21 05:43:04;;;;;;;4.85;2.00;;;;;;;19.70;100.00;101229.31;4881056;29;20029;-72
2022/05/21 05:45:53;;;;;;;3.53;2.20;;;;;;;19.87;100.00;101223.19;4880231;29;20037;-72
2022/05/21 05:48:39;;;;;;;7.25;2.00;;;;;;;19.91;100.00;101222.97;4880452;29;20128;-72
2022/05/21 05:51:26;;;;;;;4.32;2.33;;;;;;;20.10;100.00;101217.66;4880780;29;20025;-73
2022/05/21 05:54:12;;;;;;;2.80;2.00;;;;;;;20.26;98.82;101215.97;4880268;29;20139;-72
2022/05/21 05:56:58;;;;;;;2.50;2.10;;;;;;;20.28;98.84;101217.63;4879581;29;20092;-71
2022/05/21 05:59:50;;;;;;;5.18;2.40;;;;;;;20.52;97.97;101219.06;4880140;29;20048;-72
2022/05/21 06:05:41;;;;;;;4.00;2.55;;;;;;;20.85;99.23;101222.66;4880944;29;20021;-72
2022/05/21 06:08:27;;;;;;;5.40;2.55;;;;;;;20.79;99.90;101216.78;4880951;29;20388;-72
2022/05/21 06:11:15;;;;;;;8.27;2.75;;;;;;;21.21;99.09;101211.91;4880983;29;20368;-72
2022/05/21 06:14:01;;;;;;;9.88;2.95;;;;;;;20.59;100.00;101211.63;4880020;29;20041;-73
2022/05/21 06:16:47;;;;;;;7.30;2.80;;;;;;;21.19;99.06;101209.34;4880529;29;20032;-73
2022/05/21 06:19:32;;;;;;;6.75;2.20;;;;;;;21.28;94.68;101203.50;4880496;29;20057;-73
2022/05/21 06:22:18;;;;;;;9.07;2.35;;;;;;;21.15;92.82;101205.13;4867348;29;20371;-72
2022/05/21 06:25:04;;;;;;;4.53;2.40;;;;;;;21.28;91.76;101195.53;4880018;29;20040;-71
2022/05/21 06:27:52;;;;;;;3.90;2.45;;;;;;;21.61;88.33;101200.81;4880457;29;20184;-73
2022/05/21 06:30:40;;;;;;;6.50;2.47;;;;;;;21.78;88.94;101201.63;4879873;29;20029;-73
2022/05/21 06:33:30;;;;;;;5.03;2.92;;;;;;;22.05;85.32;101207.22;4867193;29;20072;-72
2022/05/21 06:36:16;;;;;;;4.40;2.65;;;;;;;22.13;84.84;101210.31;4880732;29;20033;-71
2022/05/21 06:39:03;;;;;;;4.72;2.35;;;;;;;22.33;82.58;101212.69;4880957;29;20047;-72
2022/05/21 06:41:48;;;;;;;7.63;2.60;;;;;;;22.51;82.08;101207.16;4883787;29;20511;-72
2022/05/21 06:44:34;;;;;;;4.75;2.40;;;;;;;22.43;79.95;101200.53;4870150;29;20033;-72
2022/05/21 06:47:20;;;;;;;7.90;2.72;;;;;;;22.32;77.30;101201.19;4883319;29;20025;-71
2022/05/21 06:50:06;;;;;;;5.10;2.53;;;;;;;22.49;78.35;101192.19;4882576;29;20182;-72
2022/05/21 06:52:52;;;;;;;6.05;2.85;;;;;;;22.72;77.03;101189.91;4883149;29;20037;-72
2022/05/21 06:55:39;;;;;;;4.10;2.58;;;;;;;22.76;75.08;101195.91;4884023;29;20029;-72
2022/05/21 06:58:25;;;;;;;3.83;2.60;;;;;;;22.80;73.84;101192.97;4883271;29;20029;-72
2022/05/21 07:01:11;;;;;;;3.85;2.28;;;;;;;22.26;77.78;101193.50;4883217;29;20089;-72
2022/05/21 07:03:57;;;;;;;7.18;2.80;;;;;;;22.99;75.57;101180.19;4882703;29;20373;-72
2022/05/21 07:09:47;;;;;;;3.83;2.50;;;;;;;23.60;71.50;101171.03;4883627;29;20092;-72
2022/05/21 07:12:34;;;;;;;5.45;2.63;;;;;;;23.24;70.68;101169.72;4869965;29;20044;-72
2022/05/21 07:15:20;;;;;;;4.97;2.45;;;;;;;22.81;72.18;101161.75;4882310;29;20111;-72
2022/05/21 07:18:06;;;;;;;4.70;2.60;;;;;;;23.21;71.76;101153.91;4870041;29;20022;-72
2022/05/21 07:20:51;;;;;;;11.15;5.43;;;;;;;23.18;67.49;101153.16;4869316;29;20632;-72
2022/05/21 07:23:37;;;;;;;6.43;4.57;;;;;;;23.96;65.21;101150.84;4869993;29;20039;-72
2022/05/21 07:26:23;;;;;;;5.97;2.65;;;;;;;24.26;61.74;101151.47;4881901;29;20021;-72
2022/05/21 07:29:09;;;;;;;6.90;2.25;;;;;;;24.41;59.67;101158.47;4882589;29;20027;-71
2022/05/21 07:31:55;;;;;;;2.75;2.00;;;;;;;24.69;60.13;101142.25;4883134;29;20036;-73
2022/05/21 07:34:41;;;;;;;7.40;2.30;;;;;;;24.69;57.89;101144.94;4869042;29;20056;-72
2022/05/21 07:37:27;;;;;;;2.75;1.90;;;;;;;24.95;57.36;101149.34;4869497;29;20040;-72
2022/05/21 07:40:15;;;;;;;3.08;2.35;;;;;;;25.29;57.40;101151.41;4868770;29;20032;-71
2022/05/21 07:43:12;;;;;;;4.75;2.10;;;;;;;25.35;56.70;101150.13;4869068;29;20124;-72
2022/05/21 07:45:58;;;;;;;5.93;2.50;;;;;;;25.23;55.64;101146.44;4882414;29;20044;-72
2022/05/21 07:48:44;;;;;;;5.50;2.40;;;;;;;25.48;55.03;101145.56;4882199;29;20060;-73
2022/05/21 07:51:30;;;;;;;3.35;2.20;;;;;;;24.86;54.89;101139.25;4868456;29;20471;-72
2022/05/21 07:54:16;;;;;;;3.33;2.30;;;;;;;25.53;53.56;101148.78;4882827;29;20100;-73
2022/05/21 07:57:02;;;;;;;3.25;2.20;;;;;;;25.69;54.27;101144.00;4882291;29;20127;-72
2022/05/21 07:59:48;;;;;;;4.75;2.08;;;;;;;26.21;52.43;101136.53;4882072;29;20036;-72
2022/05/21 08:02:34;;;;;;;2.65;2.00;;;;;;;26.24;52.00;101133.59;4868599;29;20047;-72
2022/05/21 08:05:20;;;;;;;7.53;2.00;;;;;;;26.75;50.67;101138.56;4882234;29;20029;-72
2022/05/21 08:08:07;;;;;;;6.05;2.10;;;;;;;26.77;50.64;101133.91;4881908;29;20032;-72
2022/05/21 08:10:53;;;;;;;3.00;2.20;;;;;;;26.86;50.83;101135.03;4882735;29;20025;-73
2022/05/21 08:13:40;;;;;;;3.65;2.30;;;;;;;27.51;50.49;101127.13;4881574;29;20037;-73
2022/05/21 08:16:26;;;;;;;7.22;2.10;;;;;;;27.58;49.26;101123.81;4881761;29;20025;-73
2022/05/21 08:19:12;;;;;;;5.35;2.10;;;;;;;27.34;49.17;101128.47;4855441;29;20057;-72
2022/05/21 08:26:56;;;;;;;7.93;2.40;;;;;;;27.62;47.93;101130.66;4881777;29;20039;-72
2022/05/21 08:28:09;;;;;;;3.83;2.40;;;;;;;27.92;46.80;101133.53;4881625;29;20056;-72
2022/05/21 08:30:55;;;;;;;3.25;2.30;;;;;;;27.60;47.11;101129.06;4882055;29;20485;-72
2022/05/21 08:33:40;;;;;;;4.25;2.63;;;;;;;28.34;46.52;101121.88;4881172;29;20112;-73
2022/05/21 08:36:27;;;;;;;3.90;2.53;;;;;;;27.56;47.07;101123.06;4881892;29;20332;-73
2022/05/21 08:39:14;;;;;;;4.38;2.25;;;;;;;28.02;46.08;101126.44;4881151;29;20457;-72
2022/05/21 08:42:13;;;;;;;3.35;2.00;;;;;;;28.36;45.10;101119.91;4881770;29;20032;-73
2022/05/21 08:45:19;;;;;;;5.55;2.10;;;;;;;28.75;44.96;101124.63;4882846;29;20463;-72
2022/05/21 08:48:10;;;;;;;6.72;2.30;;;;;;;28.61;45.21;101119.53;4882035;29;20029;-73
2022/05/21 08:50:55;;;;;;;4.10;2.00;;;;;;;28.90;44.69;101119.72;4881414;29;20132;-74
2022/05/21 08:53:49;;;;;;;6.28;2.70;;;;;;;28.97;44.90;101116.34;4881200;29;20199;-73
2022/05/21 08:56:37;;;;;;;3.90;2.20;;;;;;;29.29;44.49;101116.25;4868481;29;20037;-73
2022/05/21 08:59:30;;;;;;;5.25;2.30;;;;;;;28.89;45.13;101120.72;4881692;29;20037;-73
2022/05/21 09:02:31;;;;;;;5.20;2.17;;;;;;;28.63;44.76;101109.50;4880421;29;20052;-71
2022/05/21 09:05:19;;;;;;;5.32;2.03;;;;;;;28.69;45.72;101116.19;4883725;29;20467;-72
2022/05/21 09:08:09;;;;;;;2.38;2.00;;;;;;;29.28;44.44;101118.09;4880548;29;20108;-73
2022/05/21 09:11:04;;;;;;;5.13;2.10;;;;;;;29.35;44.54;101113.00;4881156;29;20473;-73
2022/05/21 09:14:05;;;;;;;2.50;1.95;;;;;;;28.50;44.93;101116.94;4880710;29;20029;-73
2022/05/21 09:16:56;;;;;;;5.18;2.25;;;;;;;28.91;45.69;101116.91;4880594;29;20538;-72
2022/05/21 09:19:58;;;;;;;5.15;2.00;;;;;;;29.14;45.31;101123.00;4880558;29;20494;-73
2022/05/21 09:22:54;;;;;;;3.50;2.20;;;;;;;28.69;45.16;101114.34;4867895;29;20025;-72
2022/05/21 09:25:40;;;;;;;2.70;1.80;;;;;;;29.39;43.97;101114.44;4868082;29;20068;-72
2022/05/21 09:28:26;;;;;;;5.93;2.10;;;;;;;29.05;43.36;101116.56;4880332;29;20025;-72
2022/05/21 09:31:13;;;;;;;4.38;1.92;;;;;;;29.38;42.68;101110.03;4881789;29;20032;-72
2022/05/21 09:34:26;;;;;;;4.07;1.70;;;;;;;28.58;43.78;101098.25;4880551;29;20051;-73
2022/05/21 09:37:17;;;;;;;4.80;2.00;;;;;;;28.99;42.63;101095.50;4880915;29;20052;-72
2022/05/21 09:40:17;;;;;;;4.32;2.00;;;;;;;29.45;42.73;101092.31;4879565;29;20469;-73
2022/05/21 09:46:31;;;;;;;4.93;1.90;;;;;;;29.01;41.25;101082.75;4880656;29;20029;-73
2022/05/21 09:49:19;;;;;;;3.78;1.90;;;;;;;29.55;42.11;101076.97;4880332;29;20037;-73
2022/05/21 09:52:19;;;;;;;5.90;2.03;;;;;;;28.73;41.49;101071.78;4880101;29;20025;-73
2022/05/21 09:55:18;;;;;;;4.72;1.70;;;;;;;29.40;40.90;101070.22;4867346;29;20036;-73
2022/05/21 09:58:12;;;;;;;3.05;1.70;;;;;;;29.56;39.55;101070.56;4879499;29;20067;-73
2022/05/21 10:00:58;;;;;;;4.28;1.92;;;;;;;29.25;40.79;101071.63;4880965;29;20033;-73
2022/05/21 10:03:51;;;;;;;4.53;1.73;;;;;;;29.07;39.35;101066.03;4880421;29;20132;-73
2022/05/21 10:06:42;;;;;;;2.83;1.40;;;;;;;29.38;39.29;101062.31;4880365;29;20021;-73
2022/05/21 10:13:17;;;;;;;4.28;1.95;;;;;;;29.32;37.56;101057.44;4864351;29;20068;-73
2022/05/21 10:16:36;;;;;;;4.97;1.70;;;;;;;29.66;36.63;101050.69;4883467;29;20033;-73
2022/05/21 10:19:38;;;;;;;2.08;1.77;;;;;;;29.42;35.92;101050.22;4883990;29;20514;-73
2022/05/21 10:22:48;;;;;;;4.82;1.80;;;;;;;29.67;36.12;101044.34;4883327;29;20036;-74
2022/05/21 10:26:01;;;;;;;3.03;1.50;;;;;;;29.56;34.89;101030.03;4883642;29;20029;-73
2022/05/21 10:29:08;;;;;;;3.53;1.70;;;;;;;28.97;34.37;101031.88;4883394;29;20112;-72
2022/05/21 10:32:13;;;;;;;3.88;1.63;;;;;;;29.76;33.58;101024.56;4883338;29;20029;-73
2022/05/21 10:35:04;;;;;;;3.40;1.35;;;;;;;29.69;31.15;101020.72;4883882;29;20061;-72
2022/05/21 10:38:02;;;;;;;2.85;1.27;;;;;;;29.66;30.10;101012.06;4883301;29;20044;-73
2022/05/21 10:40:57;;;;;;;6.40;1.50;;;;;;;29.47;29.60;101012.84;4883729;29;20099;-73
2022/05/21 10:44:07;;;;;;;11.13;1.60;;;;;;;29.34;30.20;101006.88;4870252;29;20045;-74
2022/05/21 10:47:17;;;;;;;3.72;1.67;;;;;;;29.51;29.99;101008.00;4883355;29;20421;-73
2022/05/21 10:50:18;;;;;;;4.03;2.63;;;;;;;29.97;31.08;101008.22;4883712;29;20025;-72
2022/05/21 10:53:36;;;;;;;6.70;2.10;;;;;;;30.04;31.30;100982.31;4882969;29;20104;-74
2022/05/21 10:56:43;;;;;;;5.32;3.17;;;;;;;30.05;30.04;100979.47;4883329;29;20066;-73
2022/05/21 11:00:06;;;;;;;2.65;1.50;;;;;;;30.15;28.21;100974.94;4870780;29;20052;-73
2022/05/21 11:03:07;;;;;;;4.82;1.60;;;;;;;30.57;28.96;100968.13;4883438;29;20029;-72
2022/05/21 11:06:17;;;;;;;3.13;1.77;;;;;;;30.65;28.29;100970.94;4883865;29;20080;-74
2022/05/21 11:09:18;;;;;;;3.17;1.77;;;;;;;30.96;28.77;100971.53;4870548;29;20367;-73
2022/05/21 11:12:34;;;;;;;1.75;1.40;;;;;;;30.72;27.88;100953.13;4882790;29;20053;-73
2022/05/21 11:15:39;;;;;;;4.25;1.60;;;;;;;30.45;28.82;100942.25;4869234;29;20375;-74
2022/05/21 11:18:46;;;;;;;1.95;1.55;;;;;;;30.60;28.03;100935.38;4881819;29;20060;-72
2022/05/21 11:21:41;;;;;;;4.05;1.80;;;;;;;30.88;28.31;100936.25;4869074;29;20029;-72
2022/05/21 11:24:36;;;;;;;3.58;1.70;;;;;;;31.09;26.93;100929.56;4882167;29;20033;-73
2022/05/21 11:27:36;;;;;;;3.08;1.67;;;;;;;30.45;27.70;100931.44;4882809;29;20029;-72
2022/05/21 11:30:22;;;;;;;3.25;1.77;;;;;;;30.77;27.91;100915.66;4881933;29;20037;-73
2022/05/21 11:39:37;;;;;;;2.80;1.50;;;;;;;31.16;27.80;100905.44;4882758;29;20032;-73
2022/05/21 11:42:28;;;;;;;5.38;1.95;;;;;;;31.69;28.94;100903.59;4883180;29;20032;-72
2022/05/21 11:45:13;;;;;;;2.72;1.80;;;;;;;32.13;28.60;100901.72;4882326;29;20116;-73
2022/05/21 11:48:16;;;;;;;2.85;2.00;;;;;;;32.03;28.83;100903.69;4881396;29;20101;-73
2022/05/21 11:51:16;;;;;;;4.10;1.80;;;;;;;31.26;28.39;100893.56;4882076;29;20056;-73
2022/05/21 11:54:02;;;;;;;3.50;1.85;;;;;;;31.86;28.50;100897.31;4881860;29;20084;-74
2022/05/21 11:57:09;;;;;;;4.05;1.80;;;;;;;32.09;27.58;100897.63;4881054;29;20104;-73
2022/05/21 11:59:55;;;;;;;3.72;2.10;;;;;;;31.03;28.51;100888.72;4869850;29;20025;-72
2022/05/21 12:02:53;;;;;;;4.90;2.10;;;;;;;32.00;28.09;100899.47;4881835;29;20036;-72
2022/05/21 12:05:44;;;;;;;3.22;2.63;;;;;;;31.28;28.49;100893.41;4882800;29;20029;-72
2022/05/21 12:08:43;;;;;;;6.00;2.20;;;;;;;31.21;27.87;100885.00;4881189;29;20021;-72
2022/05/21 12:11:36;;;;;;;2.28;1.85;;;;;;;31.60;28.03;100890.13;4881640;29;20066;-73
2022/05/21 12:14:27;;;;;;;2.88;1.90;;;;;;;30.53;28.35;100882.00;4880986;29;20111;-73
2022/05/21 12:17:56;;;;;;;3.05;2.30;;;;;;;31.11;27.56;100880.69;4882559;29;20032;-72
2022/05/21 12:20:49;;;;;;;3.72;2.03;;;;;;;31.43;26.90;100895.41;4881182;29;20049;-72
2022/05/21 12:23:35;;;;;;;3.25;1.92;;;;;;;31.69;26.52;100890.03;4868675;29;20029;-72
2022/05/21 12:26:23;;;;;;;5.47;2.03;;;;;;;32.14;26.28;100896.13;4881994;29;20041;-73
2022/05/21 12:29:25;;;;;;;6.28;2.65;;;;;;;31.63;25.12;100887.97;4882425;29;20021;-73
2022/05/21 12:32:16;;;;;;;3.47;1.60;;;;;;;31.49;25.05;100871.44;4868814;29;20056;-72
2022/05/21 12:35:31;;;;;;;1.95;1.60;;;;;;;31.65;25.46;100866.13;4881261;29;20040;-73
2022/05/21 12:38:30;;;;;;;5.00;1.85;;;;;;;32.06;24.68;100858.13;4881756;29;20061;-73
2022/05/21 12:41:23;;;;;;;4.45;1.90;;;;;;;32.13;25.77;100853.78;4881090;29;20101;-73
2022/05/21 12:44:11;;;;;;;4.68;2.03;;;;;;;31.65;23.89;100858.00;4881723;29;20025;-73
2022/05/21 12:46:58;;;;;;;3.55;1.77;;;;;;;31.55;24.55;100854.53;4868062;29;20446;-72
2022/05/21 12:49:48;;;;;;;2.00;1.70;;;;;;;31.45;24.64;100841.06;4881944;29;20047;-72
2022/05/21 12:53:04;;;;;;;2.05;1.80;;;;;;;31.53;24.43;100840.31;4880780;29;20036;-73
2022/05/21 12:56:19;;;;;;;6.13;1.70;;;;;;;31.71;24.54;100841.09;4880614;29;20057;-73
2022/05/21 12:59:07;;;;;;;3.72;1.80;;;;;;;31.85;24.73;100837.88;4880987;29;20033;-73
2022/05/21 13:02:10;;;;;;;4.28;2.40;;;;;;;31.68;24.97;100834.16;4881868;29;20043;-73
2022/05/21 13:04:59;;;;;;;3.35;1.90;;;;;;;31.42;24.80;100826.00;4880895;29;20035;-74
2022/05/21 13:07:47;;;;;;;2.58;1.88;;;;;;;31.57;24.87;100820.84;4868696;29;20354;-72
2022/05/21 13:10:35;;;;;;;3.92;1.80;;;;;;;31.42;25.17;100810.75;4880625;29;20040;-73
2022/05/21 13:13:23;;;;;;;4.57;1.90;;;;;;;30.81;26.04;100806.09;4880129;29;20032;-73
2022/05/21 13:16:18;;;;;;;4.82;1.92;;;;;;;31.48;25.55;100812.81;4880356;29;20044;-73
2022/05/21 13:19:18;;;;;;;3.63;1.75;;;;;;;32.12;25.37;100805.97;4867439;29;20052;-73
2022/05/21 13:22:40;;;;;;;2.90;1.80;;;;;;;31.86;25.58;100807.03;4880402;29;20459;-73
2022/05/21 13:25:26;;;;;;;3.03;1.73;;;;;;;31.74;26.21;100797.44;4881466;29;20067;-72
2022/05/21 13:28:18;;;;;;;4.07;1.80;;;;;;;31.24;24.85;100792.69;4880106;29;20025;-73
2022/05/21 13:31:20;;;;;;;2.67;1.63;;;;;;;31.75;25.27;100782.88;4880585;29;20033;-72
2022/05/21 13:34:06;;;;;;;2.95;2.00;;;;;;;31.55;25.07;100776.81;4880222;29;20538;-73
2022/05/21 13:37:02;;;;;;;3.03;1.73;;;;;;;32.17;24.74;100771.09;4867942;29;20138;-73
2022/05/21 13:40:12;;;;;;;3.03;2.10;;;;;;;31.99;25.54;100769.47;4880511;29;20056;-72
2022/05/21 13:43:10;;;;;;;2.13;1.73;;;;;;;32.10;25.81;100769.19;4881111;29;20033;-73